Time;durP1;ratioP1;P1;durP2;ratioP2;P2;SDS_P1;SDS_P2;PMS_P1;PMS_P2;Temp;Humidity;BMP_temperature;BMP_pressure;BME280_temperature;BME280_humidity;BME280_pressure;Samples;Min_cycle;Max_cycle;Signal;HPM_P1;HPM_P2
2022/11/18 00:01:05;;;;;;;13.40;9.05;;;;;;;;;;5055009;28;20304;-63
2022/11/18 00:03:32;;;;;;;13.85;9.50;;;;;;;;;;5055104;28;20689;-62
2022/11/18 00:05:59;;;;;;;12.98;9.68;;;;;;;;;;5054040;28;20689;-63
2022/11/18 00:08:26;;;;;;;11.75;8.48;;;;;;;;;;5055118;28;20202;-63
2022/11/18 00:10:53;;;;;;;13.82;10.20;;;;;;;;;;5053772;28;20209;-63
2022/11/18 00:16:08;;;;;;;15.77;10.55;;;;;;;;;;5055986;28;20189;-62
2022/11/18 00:18:35;;;;;;;12.23;9.68;;;;;;;;;;5056873;28;20202;-63
2022/11/18 00:21:03;;;;;;;15.32;10.55;;;;;;;;;;5058458;28;20201;-62
2022/11/18 00:23:30;;;;;;;14.23;11.10;;;;;;;;;;5056136;28;20234;-61
2022/11/18 00:26:02;;;;;;;16.15;10.65;;;;;;;;;;5056759;28;20580;-63
2022/11/18 00:28:30;;;;;;;20.02;10.25;;;;;;;;;;5058459;28;20189;-62
2022/11/18 00:31:02;;;;;;;12.85;9.90;;;;;;;;;;5059274;28;20205;-63
2022/11/18 00:33:29;;;;;;;14.88;10.30;;;;;;;;;;5058703;28;20721;-64
2022/11/18 00:35:56;;;;;;;17.63;10.40;;;;;;;;;;5061389;28;20224;-61
2022/11/18 00:38:23;;;;;;;15.30;10.85;;;;;;;;;;5059317;28;20212;-62
2022/11/18 00:40:50;;;;;;;13.52;9.45;;;;;;;;;;5061945;28;20264;-62
2022/11/18 00:43:16;;;;;;;12.75;7.90;;;;;;;;;;5060263;28;20221;-63
2022/11/18 00:45:45;;;;;;;11.52;9.02;;;;;;;;;;5058548;28;20641;-63
2022/11/18 00:48:12;;;;;;;13.38;10.35;;;;;;;;;;5058034;28;20201;-62
2022/11/18 00:50:39;;;;;;;16.75;10.93;;;;;;;;;;5057739;28;20202;-62
2022/11/18 00:53:06;;;;;;;18.40;12.13;;;;;;;;;;5057707;28;20225;-62
2022/11/18 00:55:33;;;;;;;20.77;9.60;;;;;;;;;;5057385;28;20229;-63
2022/11/18 00:58:00;;;;;;;13.93;9.75;;;;;;;;;;5057275;28;20213;-63
2022/11/18 01:00:27;;;;;;;19.88;11.20;;;;;;;;;;5057941;28;20206;-63
2022/11/18 01:02:55;;;;;;;11.30;8.90;;;;;;;;;;5056621;28;20253;-62
2022/11/18 01:05:23;;;;;;;10.77;8.05;;;;;;;;;;5056385;28;20692;-63
2022/11/18 01:07:50;;;;;;;12.32;8.88;;;;;;;;;;5057180;28;20207;-62
2022/11/18 01:10:17;;;;;;;8.95;7.28;;;;;;;;;;5056963;28;20209;-63
2022/11/18 01:15:29;;;;;;;12.40;8.63;;;;;;;;;;5057664;28;20252;-62
2022/11/18 01:17:58;;;;;;;10.43;7.85;;;;;;;;;;5057920;28;20695;-62
2022/11/18 01:20:25;;;;;;;14.05;9.43;;;;;;;;;;5058348;28;20204;-62
2022/11/18 01:22:52;;;;;;;10.13;8.07;;;;;;;;;;5059502;28;20237;-62
2022/11/18 01:25:19;;;;;;;11.57;9.05;;;;;;;;;;5057736;28;20197;-62
2022/11/18 01:27:46;;;;;;;11.52;8.30;;;;;;;;;;5057921;28;20233;-62
2022/11/18 01:30:13;;;;;;;10.68;8.88;;;;;;;;;;5058288;28;20681;-63
2022/11/18 01:32:40;;;;;;;12.00;9.10;;;;;;;;;;5057959;28;20741;-62
2022/11/18 01:35:09;;;;;;;12.93;9.18;;;;;;;;;;5058671;28;20214;-62
2022/11/18 01:37:36;;;;;;;12.50;8.48;;;;;;;;;;5057141;28;20601;-61
2022/11/18 01:40:04;;;;;;;11.57;8.48;;;;;;;;;;5058214;28;20206;-63
2022/11/18 01:42:31;;;;;;;13.25;9.85;;;;;;;;;;5058607;28;20573;-62
2022/11/18 01:45:00;;;;;;;12.70;8.80;;;;;;;;;;5057476;28;20230;-63
2022/11/18 01:47:29;;;;;;;9.68;8.30;;;;;;;;;;5056575;28;20206;-62
2022/11/18 01:49:57;;;;;;;10.55;8.65;;;;;;;;;;5056146;28;20204;-62
2022/11/18 01:52:25;;;;;;;12.95;8.55;;;;;;;;;;5055585;28;20221;-61
2022/11/18 01:54:55;;;;;;;13.23;9.27;;;;;;;;;;5058315;28;20222;-62
2022/11/18 01:57:23;;;;;;;17.67;9.45;;;;;;;;;;5059676;28;20206;-63
2022/11/18 01:59:54;;;;;;;11.05;7.85;;;;;;;;;;5059057;28;20236;-62
2022/11/18 02:02:22;;;;;;;11.65;9.38;;;;;;;;;;5058114;28;20226;-62
2022/11/18 02:04:50;;;;;;;12.05;8.57;;;;;;;;;;5058693;28;20197;-63
2022/11/18 02:07:17;;;;;;;11.85;8.85;;;;;;;;;;5056945;28;20201;-63
2022/11/18 02:09:46;;;;;;;13.88;9.98;;;;;;;;;;5057189;28;20213;-63
2022/11/18 02:12:13;;;;;;;11.38;8.77;;;;;;;;;;5057806;28;20202;-63
2022/11/18 02:14:42;;;;;;;9.75;8.55;;;;;;;;;;5055794;28;20218;-63
2022/11/18 02:17:14;;;;;;;10.35;8.77;;;;;;;;;;5055637;28;20201;-62
2022/11/18 02:19:51;;;;;;;12.25;9.07;;;;;;;;;;5056151;28;20182;-62
2022/11/18 02:22:26;;;;;;;16.17;10.02;;;;;;;;;;5055921;28;20229;-62
2022/11/18 02:25:00;;;;;;;11.13;8.60;;;;;;;;;;5055740;28;20554;-63
2022/11/18 02:27:48;;;;;;;11.60;8.52;;;;;;;;;;5055234;28;20192;-62
2022/11/18 02:30:18;;;;;;;10.32;7.93;;;;;;;;;;5054938;28;20642;-63
2022/11/18 02:32:49;;;;;;;15.60;8.60;;;;;;;;;;5055068;28;20233;-62
2022/11/18 02:35:19;;;;;;;12.18;8.60;;;;;;;;;;5054975;28;20217;-62
2022/11/18 02:37:49;;;;;;;11.90;8.00;;;;;;;;;;5057274;28;20197;-63
2022/11/18 02:40:19;;;;;;;12.32;9.00;;;;;;;;;;5060797;28;20206;-63
2022/11/18 02:42:48;;;;;;;15.98;10.00;;;;;;;;;;5060016;28;20222;-63
2022/11/18 02:45:18;;;;;;;11.45;8.50;;;;;;;;;;5058909;28;20197;-63
2022/11/18 02:47:47;;;;;;;14.20;7.93;;;;;;;;;;5058118;28;20198;-63
2022/11/18 02:50:16;;;;;;;11.63;8.60;;;;;;;;;;5058191;28;20529;-61
2022/11/18 02:52:44;;;;;;;15.77;9.40;;;;;;;;;;5058404;28;20233;-62
2022/11/18 02:55:13;;;;;;;14.23;8.60;;;;;;;;;;5060108;28;20226;-62
2022/11/18 02:57:40;;;;;;;12.27;7.72;;;;;;;;;;5058095;28;20198;-63
2022/11/18 03:00:08;;;;;;;13.20;8.43;;;;;;;;;;5059053;28;20288;-63
2022/11/18 03:02:42;;;;;;;13.27;8.43;;;;;;;;;;5059684;28;20244;-63
2022/11/18 03:05:11;;;;;;;10.07;7.95;;;;;;;;;;5060169;28;20186;-62
2022/11/18 03:07:39;;;;;;;12.52;8.27;;;;;;;;;;5062287;28;20217;-62
2022/11/18 03:10:07;;;;;;;14.52;9.45;;;;;;;;;;5063332;28;20208;-63
2022/11/18 03:12:41;;;;;;;12.25;9.82;;;;;;;;;;5057823;28;20225;-62
2022/11/18 03:15:11;;;;;;;13.55;8.77;;;;;;;;;;5057810;28;20209;-63
2022/11/18 03:17:45;;;;;;;19.90;8.45;;;;;;;;;;5057250;28;20190;-62
2022/11/18 03:20:15;;;;;;;11.88;9.10;;;;;;;;;;5056682;28;20185;-62
2022/11/18 03:22:45;;;;;;;15.93;10.23;;;;;;;;;;5057273;28;20237;-62
2022/11/18 03:25:15;;;;;;;14.20;9.70;;;;;;;;;;5055465;28;20201;-62
2022/11/18 03:27:45;;;;;;;17.83;9.70;;;;;;;;;;5056845;28;20202;-63
2022/11/18 03:30:15;;;;;;;13.23;9.55;;;;;;;;;;5058439;28;20568;-63
2022/11/18 03:32:46;;;;;;;13.05;9.82;;;;;;;;;;5057812;28;20237;-63
2022/11/18 03:35:16;;;;;;;16.15;10.63;;;;;;;;;;5056865;28;20209;-62
2022/11/18 03:37:44;;;;;;;15.65;11.20;;;;;;;;;;5057356;28;20220;-62
2022/11/18 03:40:13;;;;;;;19.80;11.98;;;;;;;;;;5055458;28;20206;-63
2022/11/18 03:42:42;;;;;;;21.40;11.63;;;;;;;;;;5055377;28;20217;-61
2022/11/18 03:45:13;;;;;;;15.63;11.45;;;;;;;;;;5055551;28;20208;-62
2022/11/18 03:47:42;;;;;;;17.98;12.65;;;;;;;;;;5061446;28;20556;-62
2022/11/18 03:50:13;;;;;;;15.27;11.32;;;;;;;;;;5064715;28;20211;-63
2022/11/18 03:52:42;;;;;;;21.80;12.60;;;;;;;;;;5070159;28;20225;-62
2022/11/18 03:55:11;;;;;;;16.63;11.60;;;;;;;;;;5072227;28;20226;-62
2022/11/18 03:57:42;;;;;;;19.10;12.27;;;;;;;;;;5072782;28;20212;-62
2022/11/18 04:00:11;;;;;;;16.48;11.43;;;;;;;;;;5072234;28;20299;-63
2022/11/18 04:02:38;;;;;;;19.90;12.98;;;;;;;;;;5072773;28;20222;-63
2022/11/18 04:05:07;;;;;;;18.63;12.73;;;;;;;;;;5070634;28;20198;-63
2022/11/18 04:10:38;;;;;;;21.75;12.75;;;;;;;;;;5102993;27;20553;-61
2022/11/18 04:13:07;;;;;;;18.20;11.65;;;;;;;;;;5097534;28;20227;-62
2022/11/18 04:15:37;;;;;;;19.52;12.27;;;;;;;;;;5097346;28;20200;-62
2022/11/18 04:18:04;;;;;;;19.35;12.77;;;;;;;;;;5095771;28;20184;-62
2022/11/18 04:20:38;;;;;;;17.40;11.68;;;;;;;;;;5095698;28;20200;-61
2022/11/18 04:23:05;;;;;;;21.67;13.77;;;;;;;;;;5098015;28;20704;-63
2022/11/18 04:25:32;;;;;;;24.83;14.38;;;;;;;;;;5096885;28;20201;-63
2022/11/18 04:28:01;;;;;;;23.08;12.77;;;;;;;;;;5095578;28;20204;-62
2022/11/18 04:30:28;;;;;;;22.67;12.77;;;;;;;;;;5094341;28;20220;-63
2022/11/18 04:32:55;;;;;;;19.55;12.93;;;;;;;;;;5093817;28;20311;-62
2022/11/18 04:35:22;;;;;;;20.00;14.38;;;;;;;;;;5093138;28;20196;-61
2022/11/18 04:37:49;;;;;;;26.10;13.88;;;;;;;;;;5092444;28;20287;-62
2022/11/18 04:40:16;;;;;;;19.33;12.25;;;;;;;;;;5092364;28;20208;-62
2022/11/18 04:42:43;;;;;;;20.23;12.90;;;;;;;;;;5090911;28;20220;-63
2022/11/18 04:45:12;;;;;;;23.80;13.45;;;;;;;;;;5090815;28;20201;-63
2022/11/18 04:47:39;;;;;;;21.27;11.70;;;;;;;;;;5094010;28;20204;-63
2022/11/18 04:50:07;;;;;;;18.42;11.63;;;;;;;;;;5090954;28;20232;-62
2022/11/18 04:52:34;;;;;;;22.65;12.70;;;;;;;;;;5090087;28;20220;-62
2022/11/18 04:55:01;;;;;;;19.75;12.75;;;;;;;;;;5090166;28;20233;-63
2022/11/18 04:57:28;;;;;;;28.42;13.40;;;;;;;;;;5090290;28;20200;-62
2022/11/18 04:59:55;;;;;;;25.08;13.85;;;;;;;;;;5090327;28;20211;-63
2022/11/18 05:02:23;;;;;;;20.98;12.55;;;;;;;;;;5089785;28;20228;-62
2022/11/18 05:04:50;;;;;;;24.73;14.48;;;;;;;;;;5089262;28;20220;-62
2022/11/18 05:07:17;;;;;;;21.88;14.27;;;;;;;;;;5076851;28;20192;-62
2022/11/18 05:09:44;;;;;;;20.63;13.70;;;;;;;;;;5086496;28;20233;-62
2022/11/18 05:14:57;;;;;;;22.83;14.07;;;;;;;;;;5071111;28;20247;-62
2022/11/18 05:17:25;;;;;;;29.30;15.48;;;;;;;;;;5089228;28;20196;-61
2022/11/18 05:19:52;;;;;;;25.75;16.50;;;;;;;;;;5087355;28;20200;-62
2022/11/18 05:22:19;;;;;;;31.85;16.70;;;;;;;;;;5075525;28;20213;-62
2022/11/18 05:24:47;;;;;;;29.38;16.27;;;;;;;;;;5072577;28;20198;-62
2022/11/18 05:27:14;;;;;;;27.35;16.55;;;;;;;;;;5056807;28;20193;-60
2022/11/18 05:29:41;;;;;;;26.38;14.20;;;;;;;;;;5066132;28;20371;-62
2022/11/18 05:32:08;;;;;;;27.30;15.95;;;;;;;;;;5061468;28;20202;-61
2022/11/18 05:34:37;;;;;;;28.08;14.93;;;;;;;;;;5056435;28;20208;-63
2022/11/18 05:37:04;;;;;;;31.25;16.35;;;;;;;;;;5076028;28;20198;-62
2022/11/18 05:39:33;;;;;;;37.53;16.88;;;;;;;;;;5074827;28;20196;-63
2022/11/18 05:44:45;;;;;;;28.55;14.85;;;;;;;;;;5061854;28;20189;-63
2022/11/18 05:47:12;;;;;;;29.55;17.20;;;;;;;;;;5055384;28;20221;-62
2022/11/18 05:49:40;;;;;;;30.85;16.00;;;;;;;;;;5056436;28;20217;-61
2022/11/18 05:52:08;;;;;;;29.35;14.95;;;;;;;;;;5054736;28;20622;-62
2022/11/18 05:54:35;;;;;;;27.65;16.58;;;;;;;;;;5054187;28;20206;-62
2022/11/18 05:57:02;;;;;;;26.92;15.65;;;;;;;;;;5056245;28;20201;-64
2022/11/18 05:59:29;;;;;;;27.23;15.18;;;;;;;;;;5055034;28;20197;-62
2022/11/18 06:01:58;;;;;;;31.65;16.55;;;;;;;;;;5055362;28;20751;-62
2022/11/18 06:04:27;;;;;;;29.58;17.13;;;;;;;;;;5055542;28;20213;-63
2022/11/18 06:06:59;;;;;;;29.90;16.15;;;;;;;;;;5055215;28;20220;-62
2022/11/18 06:09:28;;;;;;;26.67;15.75;;;;;;;;;;5070583;28;20244;-61
2022/11/18 06:11:57;;;;;;;29.10;15.93;;;;;;;;;;5075236;28;20220;-63
2022/11/18 06:14:26;;;;;;;23.08;15.60;;;;;;;;;;5070712;28;20197;-62
2022/11/18 06:16:56;;;;;;;27.50;16.02;;;;;;;;;;5074241;28;20197;-63
2022/11/18 06:19:23;;;;;;;25.15;15.85;;;;;;;;;;5073876;28;20200;-62
2022/11/18 06:21:50;;;;;;;32.00;15.82;;;;;;;;;;5056154;28;20205;-62
2022/11/18 06:24:19;;;;;;;27.40;16.05;;;;;;;;;;5055083;28;20232;-63
2022/11/18 06:26:47;;;;;;;26.20;15.85;;;;;;;;;;5055934;28;20197;-61
2022/11/18 06:29:15;;;;;;;27.23;15.30;;;;;;;;;;5058725;28;20210;-62
2022/11/18 06:31:42;;;;;;;30.33;15.57;;;;;;;;;;5063479;28;20196;-63
2022/11/18 06:34:09;;;;;;;30.90;16.50;;;;;;;;;;5060660;28;20226;-62
2022/11/18 06:36:36;;;;;;;28.40;17.48;;;;;;;;;;5070640;28;20204;-62
2022/11/18 06:39:04;;;;;;;31.17;15.80;;;;;;;;;;5069735;28;20672;-62
2022/11/18 06:41:33;;;;;;;25.83;15.52;;;;;;;;;;5056075;28;20209;-61
2022/11/18 06:43:59;;;;;;;31.98;18.52;;;;;;;;;;5061132;28;20209;-63
2022/11/18 06:49:11;;;;;;;32.05;18.65;;;;;;;;;;5069965;28;20319;-64
2022/11/18 06:51:39;;;;;;;25.73;17.23;;;;;;;;;;5055815;28;20219;-62
2022/11/18 06:54:06;;;;;;;26.95;16.83;;;;;;;;;;5055026;28;20313;-63
2022/11/18 06:56:35;;;;;;;28.73;16.73;;;;;;;;;;5054925;28;20198;-62
2022/11/18 06:59:02;;;;;;;28.45;17.35;;;;;;;;;;5059020;28;20221;-63
2022/11/18 07:01:30;;;;;;;24.15;14.50;;;;;;;;;;5067382;28;20193;-61
2022/11/18 07:03:58;;;;;;;24.88;16.58;;;;;;;;;;5067188;28;20243;-61
2022/11/18 07:06:26;;;;;;;30.33;16.58;;;;;;;;;;5066605;28;20204;-62
2022/11/18 07:08:54;;;;;;;29.85;15.85;;;;;;;;;;5067011;28;20653;-62
2022/11/18 07:11:22;;;;;;;24.38;15.23;;;;;;;;;;5059708;28;20212;-62
2022/11/18 07:13:51;;;;;;;26.10;16.80;;;;;;;;;;5058448;28;20220;-62
2022/11/18 07:16:19;;;;;;;28.70;16.95;;;;;;;;;;5075467;28;20205;-63
2022/11/18 07:18:47;;;;;;;29.75;17.23;;;;;;;;;;5069264;28;20204;-62
2022/11/18 07:21:14;;;;;;;43.05;20.05;;;;;;;;;;5062606;28;20186;-62
2022/11/18 07:23:41;;;;;;;33.40;17.80;;;;;;;;;;5059323;28;20216;-62
2022/11/18 07:26:09;;;;;;;31.73;18.77;;;;;;;;;;5056688;28;20190;-63
2022/11/18 07:28:36;;;;;;;40.15;20.95;;;;;;;;;;5064756;28;20200;-63
2022/11/18 07:31:05;;;;;;;39.65;19.42;;;;;;;;;;5071369;28;20248;-62
2022/11/18 07:33:33;;;;;;;37.67;18.90;;;;;;;;;;5056640;28;20218;-64
2022/11/18 07:36:03;;;;;;;35.95;18.40;;;;;;;;;;5068180;28;20200;-62
2022/11/18 07:38:31;;;;;;;34.83;17.77;;;;;;;;;;5073284;28;20201;-61
2022/11/18 07:41:03;;;;;;;29.08;17.55;;;;;;;;;;5060500;28;20201;-63
2022/11/18 07:43:30;;;;;;;36.00;19.02;;;;;;;;;;5053307;28;20278;-62
2022/11/18 07:45:57;;;;;;;32.40;18.73;;;;;;;;;;5054008;28;20202;-64
2022/11/18 07:48:25;;;;;;;42.42;19.10;;;;;;;;;;5071126;28;20193;-61
2022/11/18 07:50:52;;;;;;;31.38;17.40;;;;;;;;;;5073717;28;20231;-63
2022/11/18 07:53:19;;;;;;;29.85;18.63;;;;;;;;;;5073290;28;20225;-64
2022/11/18 07:55:46;;;;;;;34.13;17.65;;;;;;;;;;5055327;28;20208;-63
2022/11/18 07:58:14;;;;;;;30.90;18.33;;;;;;;;;;5053688;28;20205;-63
2022/11/18 08:00:41;;;;;;;34.38;19.55;;;;;;;;;;5053557;28;20205;-63
2022/11/18 08:03:08;;;;;;;33.83;18.73;;;;;;;;;;5053989;28;20221;-62
2022/11/18 08:05:36;;;;;;;33.58;17.90;;;;;;;;;;5062537;28;20198;-63
2022/11/18 08:08:03;;;;;;;27.42;17.50;;;;;;;;;;5064846;28;20273;-63
2022/11/18 08:10:30;;;;;;;31.45;17.90;;;;;;;;;;5067858;28;20229;-63
2022/11/18 08:12:57;;;;;;;36.92;18.52;;;;;;;;;;5068355;28;20231;-63
2022/11/18 08:15:24;;;;;;;32.42;16.33;;;;;;;;;;5063515;28;20201;-62
2022/11/18 08:17:51;;;;;;;37.83;17.63;;;;;;;;;;5061378;28;20202;-63
2022/11/18 08:20:18;;;;;;;33.90;18.00;;;;;;;;;;5058377;28;20198;-64
2022/11/18 08:22:47;;;;;;;36.83;18.08;;;;;;;;;;5060875;28;20226;-64
2022/11/18 08:25:14;;;;;;;30.70;18.67;;;;;;;;;;5062408;28;20204;-63
2022/11/18 08:27:41;;;;;;;28.42;16.23;;;;;;;;;;5055988;28;20202;-63
2022/11/18 08:30:09;;;;;;;34.78;18.35;;;;;;;;;;5056958;28;20222;-63
2022/11/18 08:32:36;;;;;;;29.75;17.60;;;;;;;;;;5054787;28;20241;-62
2022/11/18 08:35:03;;;;;;;33.58;19.00;;;;;;;;;;5053972;28;20323;-62
2022/11/18 08:37:30;;;;;;;37.80;18.92;;;;;;;;;;5053276;28;20224;-62
2022/11/18 08:39:59;;;;;;;30.48;17.83;;;;;;;;;;5053014;28;20202;-63
2022/11/18 08:42:26;;;;;;;34.78;19.02;;;;;;;;;;5053143;28;20226;-61
2022/11/18 08:44:53;;;;;;;29.52;17.42;;;;;;;;;;5053396;28;20201;-63
2022/11/18 08:47:20;;;;;;;42.85;19.23;;;;;;;;;;5053592;28;20205;-63
2022/11/18 08:49:47;;;;;;;33.10;18.63;;;;;;;;;;5052528;28;20221;-62
2022/11/18 08:52:14;;;;;;;36.13;17.45;;;;;;;;;;5052800;28;20674;-61
2022/11/18 08:54:41;;;;;;;30.90;16.98;;;;;;;;;;5052995;28;20233;-62
2022/11/18 08:57:10;;;;;;;29.08;17.23;;;;;;;;;;5056472;28;20700;-62
2022/11/18 08:59:37;;;;;;;30.35;17.67;;;;;;;;;;5057477;28;20206;-63
2022/11/18 09:02:04;;;;;;;31.63;20.70;;;;;;;;;;5057604;28;20206;-62
2022/11/18 09:04:31;;;;;;;33.83;19.45;;;;;;;;;;5057905;28;20206;-63
2022/11/18 09:06:58;;;;;;;32.38;18.80;;;;;;;;;;5058890;28;20202;-62
2022/11/18 09:09:25;;;;;;;35.72;19.80;;;;;;;;;;5073964;28;20208;-64
2022/11/18 09:11:52;;;;;;;39.15;21.65;;;;;;;;;;5076964;28;20227;-61
2022/11/18 09:14:21;;;;;;;36.55;19.85;;;;;;;;;;5077004;28;20310;-62
2022/11/18 09:16:48;;;;;;;33.33;18.45;;;;;;;;;;5061043;28;20205;-61
2022/11/18 09:19:15;;;;;;;37.33;21.80;;;;;;;;;;5061160;28;20197;-60
2022/11/18 09:21:43;;;;;;;37.15;19.05;;;;;;;;;;5056778;28;20197;-62
2022/11/18 09:24:11;;;;;;;37.67;21.50;;;;;;;;;;5055233;28;20250;-62
2022/11/18 09:26:38;;;;;;;28.10;18.23;;;;;;;;;;5057267;28;20259;-61
2022/11/18 09:29:05;;;;;;;35.70;20.98;;;;;;;;;;5056877;28;20209;-61
2022/11/18 09:31:33;;;;;;;35.15;18.67;;;;;;;;;;5056619;28;20225;-62
2022/11/18 09:34:00;;;;;;;31.50;19.88;;;;;;;;;;5056738;28;20226;-63
2022/11/18 09:36:28;;;;;;;34.20;21.20;;;;;;;;;;5057254;28;20674;-63
2022/11/18 09:38:55;;;;;;;37.28;21.88;;;;;;;;;;5056850;28;20205;-62
2022/11/18 09:41:40;;;;;;;33.65;19.85;;;;;;;;;;5057882;28;20199;-63
2022/11/18 09:44:14;;;;;;;30.92;18.50;;;;;;;;;;5059878;28;20225;-62
2022/11/18 09:46:49;;;;;;;35.55;21.10;;;;;;;;;;5057816;28;20197;-63
2022/11/18 09:49:17;;;;;;;27.83;19.00;;;;;;;;;;5056623;28;20190;-63
2022/11/18 09:51:45;;;;;;;37.03;19.33;;;;;;;;;;5056496;28;20248;-63
2022/11/18 09:54:21;;;;;;;32.28;19.73;;;;;;;;;;5056294;28;20594;-62
2022/11/18 09:56:49;;;;;;;29.52;16.90;;;;;;;;;;5055979;28;20190;-62
2022/11/18 09:59:18;;;;;;;31.20;19.20;;;;;;;;;;5056711;28;20201;-61
2022/11/18 10:01:47;;;;;;;27.40;16.55;;;;;;;;;;5055897;28;20198;-64
2022/11/18 10:04:15;;;;;;;29.58;17.30;;;;;;;;;;5056176;28;20253;-65
2022/11/18 10:06:43;;;;;;;27.25;17.02;;;;;;;;;;5056228;28;20210;-62
2022/11/18 10:09:13;;;;;;;24.85;15.80;;;;;;;;;;5056660;28;20641;-62
2022/11/18 10:11:44;;;;;;;25.63;16.88;;;;;;;;;;5056997;28;20210;-60
2022/11/18 10:14:18;;;;;;;27.85;17.40;;;;;;;;;;5056696;28;20228;-62
2022/11/18 10:16:49;;;;;;;23.73;16.45;;;;;;;;;;5056191;28;20182;-64
2022/11/18 10:19:23;;;;;;;22.73;14.75;;;;;;;;;;5057257;28;20186;-62
2022/11/18 10:21:54;;;;;;;25.77;14.68;;;;;;;;;;5057860;28;20190;-60
2022/11/18 10:24:22;;;;;;;24.65;14.90;;;;;;;;;;5055478;28;20238;-62
2022/11/18 10:26:55;;;;;;;21.80;14.00;;;;;;;;;;5056297;28;20594;-62
2022/11/18 10:29:23;;;;;;;24.92;15.35;;;;;;;;;;5060132;28;20186;-62
2022/11/18 10:31:57;;;;;;;23.85;14.70;;;;;;;;;;5065343;28;20309;-63
2022/11/18 10:34:25;;;;;;;25.98;16.33;;;;;;;;;;5056892;28;20225;-65
2022/11/18 10:37:10;;;;;;;30.50;15.88;;;;;;;;;;5057659;28;20211;-62
2022/11/18 10:39:49;;;;;;;25.05;15.02;;;;;;;;;;5056222;28;20194;-63
2022/11/18 10:42:21;;;;;;;24.67;15.00;;;;;;;;;;5055907;28;20182;-63
2022/11/18 10:44:48;;;;;;;25.75;15.90;;;;;;;;;;5056485;28;20197;-62
2022/11/18 10:47:28;;;;;;;27.38;17.50;;;;;;;;;;5055586;28;20206;-62
2022/11/18 10:49:56;;;;;;;27.35;15.80;;;;;;;;;;5055476;28;20186;-62
2022/11/18 10:52:25;;;;;;;23.50;15.90;;;;;;;;;;5057180;28;20233;-64
2022/11/18 10:55:10;;;;;;;22.23;14.25;;;;;;;;;;5057839;28;20202;-65
2022/11/18 10:57:42;;;;;;;23.50;15.50;;;;;;;;;;5057054;28;20676;-63
2022/11/18 11:00:32;;;;;;;27.63;16.35;;;;;;;;;;5062021;28;20661;-64
2022/11/18 11:03:01;;;;;;;24.42;14.70;;;;;;;;;;5059270;28;20217;-65
2022/11/18 11:05:28;;;;;;;23.13;14.18;;;4.70;99.90;;;;;;5058820;28;20211;-64
2022/11/18 11:08:01;;;;;;;30.27;15.00;;;2.30;99.90;;;;;;5063810;28;20201;-63
2022/11/18 11:10:28;;;;;;;23.08;14.68;;;2.20;99.90;;;;;;5062757;28;20270;-63
2022/11/18 11:12:59;;;;;;;19.17;12.82;;;2.20;99.90;;;;;;5062473;28;20273;-63
2022/11/18 11:15:35;;;;;;;22.88;13.95;;;2.20;99.90;;;;;;5062641;28;20186;-64
2022/11/18 11:20:52;;;;;;;21.63;14.52;;;2.10;99.90;;;;;;5059717;28;20232;-64
2022/11/18 11:23:18;;;;;;;23.35;14.57;;;2.10;99.90;;;;;;5061327;28;20225;-66
2022/11/18 11:25:53;;;;;;;22.98;14.55;;;2.10;99.90;;;;;;5057934;28;20205;-63
2022/11/18 11:28:28;;;;;;;24.02;16.10;;;2.10;99.90;;;;;;5053953;28;20196;-63
2022/11/18 11:31:09;;;;;;;21.42;14.73;;;2.10;99.90;;;;;;5053932;28;20224;-63
2022/11/18 11:33:42;;;;;;;24.45;14.93;;;2.20;99.90;;;;;;5053751;28;20736;-63
2022/11/18 11:36:20;;;;;;;21.90;13.82;;;2.20;99.90;;;;;;5054279;28;20554;-62
2022/11/18 11:39:00;;;;;;;24.08;14.45;;;2.20;99.90;;;;;;5054685;28;20190;-62
2022/11/18 11:41:33;;;;;;;22.15;12.55;;;2.20;99.90;;;;;;5054050;28;20201;-63
2022/11/18 11:44:24;;;;;;;22.38;13.20;;;2.20;99.90;;;;;;5053866;28;20221;-63
2022/11/18 11:49:53;;;;;;;25.52;14.55;;;2.20;99.90;;;;;;5053879;28;20261;-63
2022/11/18 11:52:31;;;;;;;26.38;16.08;;;2.30;99.90;;;;;;5054185;28;20315;-64
2022/11/18 11:55:12;;;;;;;25.65;14.98;;;2.30;99.90;;;;;;5053912;28;20193;-63
2022/11/18 11:57:47;;;;;;;25.33;14.15;;;2.40;99.90;;;;;;5053732;28;20190;-65
2022/11/18 12:00:16;;;;;;;24.75;14.23;;;2.40;99.90;;;;;;5053475;28;20563;-62
2022/11/18 12:02:59;;;;;;;23.23;13.63;;;2.40;99.90;;;;;;5053188;28;20312;-62
2022/11/18 12:05:33;;;;;;;22.92;14.15;;;2.40;99.90;;;;;;5052982;28;20186;-64
2022/11/18 12:08:03;;;;;;;21.85;14.27;;;2.40;99.90;;;;;;5053266;28;20194;-63
2022/11/18 12:10:43;;;;;;;19.80;13.20;;;2.30;99.90;;;;;;5052879;28;20695;-63
2022/11/18 12:13:20;;;;;;;25.80;14.80;;;2.30;99.90;;;;;;5052648;28;20221;-64
2022/11/18 12:16:01;;;;;;;26.98;16.40;;;2.30;99.90;;;;;;5052591;28;20197;-62
2022/11/18 12:18:38;;;;;;;27.45;17.00;;;2.30;99.90;;;;;;5052860;28;20194;-64
2022/11/18 12:21:06;;;;;;;24.67;15.35;;;2.30;99.90;;;;;;5053747;28;20189;-66
2022/11/18 12:23:33;;;;;;;25.58;16.30;;;2.30;99.90;;;;;;5054335;28;20218;-64
2022/11/18 12:26:06;;;;;;;28.40;17.27;;;2.20;99.90;;;;;;5054465;28;20323;-64
2022/11/18 12:28:36;;;;;;;25.85;15.25;;;2.20;99.90;;;;;;5053926;28;20194;-65
2022/11/18 12:31:34;;;;;;;24.60;14.77;;;2.20;99.90;;;;;;5055751;28;20209;-64
2022/11/18 12:34:18;;;;;;;26.23;16.80;;;2.20;99.90;;;;;;5054601;28;20231;-65
2022/11/18 12:36:46;;;;;;;25.60;16.27;;;2.20;99.90;;;;;;5058157;28;20190;-64
2022/11/18 12:39:56;;;;;;;23.15;14.68;;;2.30;99.90;;;;;;5057706;28;20201;-65
2022/11/18 12:46:00;;;;;;;25.35;15.10;;;2.20;99.90;;;;;;5057461;28;20563;-64
2022/11/18 12:48:39;;;;;;;24.80;14.10;;;2.10;99.90;;;;;;5056809;28;20646;-64
2022/11/18 12:51:48;;;;;;;25.50;15.98;;;2.10;99.90;;;;;;5058048;28;20209;-62
2022/11/18 12:54:27;;;;;;;26.00;15.88;;;2.00;99.90;;;;;;5057582;28;20226;-61
2022/11/18 12:56:55;;;;;;;24.90;14.00;;;2.00;99.90;;;;;;5058264;28;20186;-63
2022/11/18 12:59:34;;;;;;;25.05;15.25;;;1.90;99.90;;;;;;5058058;28;20681;-64
2022/11/18 13:02:20;;;;;;;21.88;14.48;;;1.90;99.90;;;;;;5056464;28;20182;-65
2022/11/18 13:05:01;;;;;;;25.02;15.60;;;1.90;99.90;;;;;;5056655;28;20277;-65
2022/11/18 13:10:22;;;;;;;26.38;15.77;;;1.90;99.90;;;;;;5056377;28;20291;-64
2022/11/18 13:12:50;;;;;;;25.70;15.75;;;1.90;99.90;;;;;;5056597;28;20226;-65
2022/11/18 13:18:11;;;;;;;25.42;15.75;;;1.90;99.90;;;;;;5057743;28;20177;-64
2022/11/18 13:20:40;;;;;;;27.58;16.70;;;2.00;99.90;;;;;;5058486;28;20189;-62
2022/11/18 13:26:18;;;;;;;24.42;15.13;;;1.90;99.90;;;;;;5064639;28;20649;-61
2022/11/18 13:29:02;;;;;;;23.50;14.65;;;1.90;99.90;;;;;;5057353;28;20587;-61
2022/11/18 13:31:37;;;;;;;25.88;16.10;;;1.90;99.90;;;;;;5057049;28;20213;-62
2022/11/18 13:34:12;;;;;;;25.60;16.60;;;1.90;99.90;;;;;;5056176;28;20343;-63
2022/11/18 13:36:44;;;;;;;25.00;15.50;;;1.90;99.90;;;;;;5055899;28;20212;-62
2022/11/18 13:39:19;;;;;;;20.80;14.00;;;1.80;99.90;;;;;;5056044;28;20190;-61
2022/11/18 13:41:57;;;;;;;22.73;14.05;;;1.90;99.90;;;;;;5055782;28;20243;-62
2022/11/18 13:44:26;;;;;;;21.10;13.48;;;1.90;99.90;;;;;;5058076;28;20197;-64
2022/11/18 13:46:56;;;;;;;21.98;14.02;;;1.90;99.90;;;;;;5056698;28;20213;-61
2022/11/18 13:49:30;;;;;;;20.55;13.35;;;1.90;99.90;;;;;;5056223;28;20205;-63
2022/11/18 13:51:57;;;;;;;22.90;13.13;;;1.90;99.90;;;;;;5056396;28;20206;-63
2022/11/18 13:54:26;;;;;;;19.80;14.13;;;1.80;99.90;;;;;;5057625;28;20213;-66
2022/11/18 13:56:55;;;;;;;20.10;13.30;;;1.80;99.90;;;;;;5056577;28;20202;-65
2022/11/18 13:59:23;;;;;;;18.20;12.90;;;1.80;99.90;;;;;;5056460;28;20201;-65
2022/11/18 14:01:55;;;;;;;22.38;15.52;;;1.70;99.90;;;;;;5056736;28;20204;-65
2022/11/18 14:04:25;;;;;;;20.20;14.82;;;1.70;99.90;;;;;;5057156;28;20702;-63
2022/11/18 14:06:51;;;;;;;22.20;13.95;;;1.60;99.90;;;;;;5056661;28;20208;-64
2022/11/18 14:09:24;;;;;;;20.60;13.63;;;1.60;99.90;;;;;;5056020;28;20236;-64
2022/11/18 14:12:02;;;;;;;23.30;16.08;;;1.50;99.90;;;;;;5055877;28;20249;-65
2022/11/18 14:14:31;;;;;;;23.35;16.13;;;1.50;99.90;;;;;;5056102;28;20194;-61
2022/11/18 14:17:20;;;;;;;25.13;16.75;;;1.50;99.90;;;;;;5055834;28;20212;-65
2022/11/18 14:19:49;;;;;;;24.17;17.02;;;1.40;99.90;;;;;;5053099;28;20205;-63
2022/11/18 14:22:18;;;;;;;27.05;15.73;;;1.30;99.90;;;;;;5055337;28;20198;-65
2022/11/18 14:24:54;;;;;;;27.48;17.02;;;1.30;99.90;;;;;;5055171;28;20675;-64
2022/11/18 14:27:40;;;;;;;28.67;17.63;;;1.20;99.90;;;;;;5055219;28;20554;-62
2022/11/18 14:30:28;;;;;;;25.45;16.70;;;1.20;99.90;;;;;;5056037;28;20190;-61
2022/11/18 14:33:26;;;;;;;27.00;17.70;;;1.30;99.90;;;;;;5054703;28;20314;-63
2022/11/18 14:35:56;;;;;;;29.13;17.70;;;1.30;99.90;;;;;;5055926;28;20182;-63
2022/11/18 14:38:28;;;;;;;29.92;18.80;;;1.30;99.90;;;;;;5054818;28;20197;-63
2022/11/18 14:40:56;;;;;;;28.83;18.48;;;1.30;99.90;;;;;;5054881;28;20193;-61
2022/11/18 14:43:25;;;;;;;25.40;16.63;;;1.30;99.90;;;;;;5055003;28;20632;-61
2022/11/18 14:45:54;;;;;;;31.35;18.30;;;1.30;99.90;;;;;;5056464;28;20206;-63